createdAt,value
2019-02-19T00:00:00.349Z,99.90
2019-02-19T00:02:28.731Z,99.90
2019-02-19T00:04:57.015Z,99.90
2019-02-19T00:07:25.291Z,99.90
2019-02-19T00:09:53.554Z,99.90
2019-02-19T00:12:21.837Z,99.90
2019-02-19T00:14:50.113Z,99.90
2019-02-19T00:17:18.410Z,99.90
2019-02-19T00:19:46.682Z,99.90
2019-02-19T00:22:14.967Z,99.90
2019-02-19T00:24:43.234Z,99.90
2019-02-19T00:27:11.545Z,99.90
2019-02-19T00:29:39.790Z,99.90
2019-02-19T00:32:08.065Z,99.90
2019-02-19T00:34:36.328Z,99.90
2019-02-19T00:37:04.616Z,99.90
2019-02-19T00:39:32.880Z,99.90
2019-02-19T00:42:01.158Z,99.90
2019-02-19T00:44:29.424Z,99.90
2019-02-19T00:46:57.678Z,99.90
2019-02-19T00:49:25.974Z,99.90
2019-02-19T00:51:54.254Z,99.90
2019-02-19T00:54:22.503Z,99.90
2019-02-19T00:56:50.782Z,99.90
2019-02-19T00:59:19.042Z,99.90
2019-02-19T01:01:47.315Z,99.90
2019-02-19T01:04:15.679Z,99.90
2019-02-19T01:06:43.924Z,99.90
2019-02-19T01:09:12.213Z,99.90
2019-02-19T01:11:40.468Z,99.90
2019-02-19T01:14:08.773Z,99.90
2019-02-19T01:16:37.086Z,99.90
2019-02-19T01:19:05.369Z,99.90
2019-02-19T01:21:33.625Z,99.90
2019-02-19T01:24:01.914Z,99.90
2019-02-19T01:26:30.178Z,99.90
2019-02-19T01:28:58.471Z,99.90
2019-02-19T01:31:26.783Z,99.90
2019-02-19T01:33:55.078Z,99.90
2019-02-19T01:36:23.323Z,99.90
2019-02-19T01:38:51.619Z,99.90
2019-02-19T01:41:19.868Z,99.90
2019-02-19T01:43:48.162Z,99.90
2019-02-19T01:46:16.429Z,99.90
2019-02-19T01:48:44.704Z,99.90
2019-02-19T01:51:12.985Z,99.90
2019-02-19T01:53:41.239Z,99.90
2019-02-19T01:56:09.514Z,99.90
2019-02-19T01:58:37.824Z,99.90
2019-02-19T02:01:06.098Z,99.90
2019-02-19T02:03:34.398Z,99.90
2019-02-19T02:06:02.651Z,99.90
2019-02-19T02:08:30.916Z,99.90
2019-02-19T02:10:59.198Z,99.90
2019-02-19T02:13:27.465Z,99.90
2019-02-19T02:15:55.738Z,99.90
2019-02-19T02:18:24.005Z,99.90
2019-02-19T02:20:52.295Z,99.90
2019-02-19T02:23:20.555Z,99.90
2019-02-19T02:25:48.849Z,99.90
2019-02-19T02:28:17.105Z,99.90
2019-02-19T02:30:45.385Z,99.90
2019-02-19T02:33:13.640Z,99.90
2019-02-19T02:35:41.936Z,99.90
2019-02-19T02:38:10.201Z,99.90
2019-02-19T02:40:38.488Z,99.90
2019-02-19T02:43:06.765Z,99.90
2019-02-19T02:45:35.060Z,99.90
2019-02-19T02:48:03.305Z,99.90
2019-02-19T02:50:31.615Z,99.90
2019-02-19T02:52:59.859Z,99.90
2019-02-19T02:55:28.154Z,99.90
2019-02-19T02:57:56.430Z,99.90
2019-02-19T03:00:24.776Z,99.90
2019-02-19T03:02:53.034Z,99.90
2019-02-19T03:05:21.270Z,99.90
2019-02-19T03:07:51.201Z,99.90
2019-02-19T03:10:19.468Z,99.90
2019-02-19T03:12:47.830Z,99.90
2019-02-19T03:15:16.556Z,99.90
2019-02-19T03:17:44.841Z,99.90
2019-02-19T03:20:13.089Z,99.90
2019-02-19T03:22:41.373Z,99.90
2019-02-19T03:25:09.639Z,99.90
2019-02-19T03:27:37.904Z,99.90
2019-02-19T03:30:08.900Z,99.90
2019-02-19T03:32:37.251Z,99.90
2019-02-19T03:35:05.665Z,99.90
2019-02-19T03:37:33.952Z,99.90
2019-02-19T03:40:02.197Z,99.90
2019-02-19T03:42:30.508Z,99.90
2019-02-19T03:44:58.756Z,99.90
2019-02-19T03:47:27.057Z,99.90
2019-02-19T03:49:55.305Z,99.90
2019-02-19T03:52:23.600Z,99.90
2019-02-19T03:54:51.956Z,99.90
2019-02-19T03:57:20.218Z,99.90
2019-02-19T03:59:48.489Z,99.90
2019-02-19T04:02:16.755Z,99.90
2019-02-19T04:04:45.034Z,99.90
2019-02-19T04:07:13.294Z,99.90
2019-02-19T04:09:41.585Z,99.90
2019-02-19T04:12:09.848Z,99.90
2019-02-19T04:14:38.123Z,99.90
2019-02-19T04:17:06.397Z,99.90
2019-02-19T04:19:34.755Z,99.90
2019-02-19T04:22:03.019Z,99.90
2019-02-19T04:24:31.300Z,99.90
2019-02-19T04:26:59.560Z,99.90
2019-02-19T04:29:27.843Z,99.90
2019-02-19T04:31:56.102Z,99.90
2019-02-19T04:34:24.380Z,99.90
2019-02-19T04:36:52.645Z,99.90
2019-02-19T04:39:20.941Z,99.90
2019-02-19T04:41:49.198Z,99.90
2019-02-19T04:44:17.484Z,99.90
2019-02-19T04:46:45.785Z,99.90
2019-02-19T04:49:14.053Z,99.90
2019-02-19T04:51:42.329Z,99.90
2019-02-19T04:54:10.603Z,99.90
2019-02-19T04:56:38.883Z,99.90
2019-02-19T04:59:07.152Z,99.90
2019-02-19T05:01:35.439Z,99.90
2019-02-19T05:04:03.715Z,99.90
2019-02-19T05:06:31.997Z,99.90
2019-02-19T05:09:00.262Z,99.90
2019-02-19T05:11:28.560Z,99.90
2019-02-19T05:13:56.804Z,99.90
2019-02-19T05:16:25.100Z,99.90
2019-02-19T05:18:53.428Z,99.90
2019-02-19T05:21:21.702Z,99.90
2019-02-19T05:23:49.958Z,99.90
2019-02-19T05:26:18.236Z,99.90
2019-02-19T05:28:46.494Z,99.90
2019-02-19T05:31:14.775Z,99.90
2019-02-19T05:33:43.104Z,99.90
2019-02-19T05:36:11.456Z,99.90
2019-02-19T05:38:39.717Z,99.90
2019-02-19T05:41:08.001Z,99.90
2019-02-19T05:43:36.263Z,99.90
2019-02-19T05:46:04.565Z,99.90
2019-02-19T05:48:32.840Z,99.90
2019-02-19T05:51:01.115Z,99.90
2019-02-19T05:53:29.413Z,99.90
2019-02-19T05:55:57.689Z,99.90
2019-02-19T05:58:25.970Z,99.90
2019-02-19T06:00:54.229Z,99.90
2019-02-19T06:03:22.524Z,99.90
2019-02-19T06:05:50.804Z,99.90
2019-02-19T06:08:19.094Z,99.90
2019-02-19T06:10:47.429Z,99.90
2019-02-19T06:13:15.723Z,99.90
2019-02-19T06:15:43.992Z,99.90
2019-02-19T06:18:12.288Z,99.90
2019-02-19T06:20:40.554Z,99.90
2019-02-19T06:23:08.917Z,99.90
2019-02-19T06:25:37.198Z,99.90
2019-02-19T06:28:05.486Z,99.90
2019-02-19T06:30:33.745Z,99.90
2019-02-19T06:33:02.097Z,99.90
2019-02-19T06:35:30.434Z,99.90
2019-02-19T06:37:58.767Z,99.90
2019-02-19T06:40:28.374Z,99.90
2019-02-19T06:42:56.689Z,99.90
2019-02-19T06:45:24.953Z,99.90
2019-02-19T06:47:53.240Z,99.90
2019-02-19T06:50:21.529Z,99.90
2019-02-19T06:52:49.829Z,99.90
2019-02-19T06:55:18.139Z,99.90
2019-02-19T06:57:46.377Z,99.90
2019-02-19T07:00:14.658Z,99.90
2019-02-19T07:02:44.576Z,99.90
2019-02-19T07:05:14.494Z,99.90
2019-02-19T07:07:42.778Z,99.90
2019-02-19T07:10:11.067Z,99.90
2019-02-19T07:12:39.311Z,99.90
2019-02-19T07:15:08.907Z,99.90
2019-02-19T07:17:37.189Z,99.90
2019-02-19T07:20:09.910Z,99.90
2019-02-19T07:22:38.207Z,99.90
2019-02-19T07:25:09.358Z,99.90
2019-02-19T07:27:37.657Z,99.90
2019-02-19T07:30:08.613Z,99.90
2019-02-19T07:32:36.866Z,99.90
2019-02-19T07:35:07.387Z,99.90
2019-02-19T07:37:35.653Z,99.90
2019-02-19T07:40:04.689Z,99.90
2019-02-19T07:42:32.952Z,99.90
2019-02-19T07:45:01.255Z,99.90
2019-02-19T07:47:29.515Z,99.90
2019-02-19T07:49:57.813Z,99.90
2019-02-19T07:52:26.057Z,99.90
2019-02-19T07:54:54.349Z,99.90
2019-02-19T07:57:22.599Z,99.90
2019-02-19T07:59:50.892Z,99.90
2019-02-19T08:02:19.152Z,99.90
2019-02-19T08:04:47.498Z,99.90
2019-02-19T08:07:15.807Z,99.90
2019-02-19T08:09:44.073Z,99.90
2019-02-19T08:12:12.383Z,99.90
2019-02-19T08:14:40.712Z,99.90
2019-02-19T08:17:08.999Z,99.90
2019-02-19T08:19:37.268Z,99.90
2019-02-19T08:22:05.556Z,99.90
2019-02-19T08:24:33.830Z,99.90
2019-02-19T08:27:02.239Z,99.90
2019-02-19T08:29:30.578Z,99.90
2019-02-19T08:31:58.873Z,99.90
2019-02-19T08:34:27.148Z,99.90
2019-02-19T08:36:55.438Z,99.90
2019-02-19T08:39:23.740Z,99.90
2019-02-19T08:41:56.488Z,99.90
2019-02-19T08:44:24.753Z,99.90
2019-02-19T08:46:53.057Z,99.90
2019-02-19T08:49:21.295Z,99.90
2019-02-19T08:51:55.867Z,99.90
2019-02-19T08:54:19.577Z,99.90
2019-02-19T08:56:47.863Z,99.90
2019-02-19T08:59:16.142Z,99.90
2019-02-19T09:01:44.498Z,99.90
2019-02-19T09:04:12.784Z,99.90
2019-02-19T09:06:41.048Z,99.90
2019-02-19T09:09:09.337Z,99.90
2019-02-19T09:11:37.590Z,99.90
2019-02-19T09:14:05.883Z,99.90
2019-02-19T09:16:34.157Z,99.90
2019-02-19T09:19:02.470Z,99.90
2019-02-19T09:21:30.802Z,99.90
2019-02-19T09:23:59.084Z,99.90
2019-02-19T09:26:27.353Z,99.90
2019-02-19T09:28:55.643Z,99.90
2019-02-19T09:31:23.888Z,99.90
2019-02-19T09:33:52.177Z,99.90
2019-02-19T09:36:20.434Z,99.90
2019-02-19T09:38:48.732Z,99.90
2019-02-19T09:41:17.014Z,99.90
2019-02-19T09:43:45.298Z,99.90
2019-02-19T09:46:13.563Z,99.90
2019-02-19T09:48:41.874Z,99.90
2019-02-19T09:51:10.135Z,99.90
2019-02-19T09:53:38.429Z,99.90
2019-02-19T09:56:06.715Z,99.90
2019-02-19T09:58:34.974Z,99.90
2019-02-19T10:01:03.282Z,99.90
2019-02-19T10:03:31.584Z,99.90
2019-02-19T10:05:59.879Z,99.90
2019-02-19T10:08:28.166Z,99.90
2019-02-19T10:10:56.448Z,99.90
2019-02-19T10:13:25.196Z,99.90
2019-02-19T10:15:53.608Z,99.90
2019-02-19T10:18:21.872Z,99.90
2019-02-19T10:20:51.756Z,99.90
2019-02-19T10:23:20.212Z,99.90
2019-02-19T10:25:48.510Z,99.90
2019-02-19T10:28:16.795Z,99.90
2019-02-19T10:30:45.088Z,99.90
2019-02-19T10:33:13.353Z,99.90
2019-02-19T10:35:41.638Z,99.90
2019-02-19T10:38:09.889Z,99.90
2019-02-19T10:40:38.191Z,99.90
2019-02-19T10:43:06.439Z,99.90
2019-02-19T10:45:34.718Z,99.90
2019-02-19T10:48:03.025Z,99.90
2019-02-19T10:50:31.345Z,99.90
2019-02-19T10:52:59.658Z,99.90
2019-02-19T10:55:27.937Z,99.80
2019-02-19T10:57:56.273Z,98.80
2019-02-19T11:00:24.539Z,98.50
2019-02-19T11:02:52.948Z,97.80
2019-02-19T11:05:21.437Z,96.70
2019-02-19T11:07:49.727Z,97.60
2019-02-19T11:10:18.028Z,96.00
2019-02-19T11:12:46.372Z,95.10
2019-02-19T11:15:17.226Z,94.40
2019-02-19T11:17:45.383Z,93.20
2019-02-19T11:20:18.822Z,93.70
2019-02-19T11:22:47.128Z,93.70
2019-02-19T11:25:15.536Z,93.50
2019-02-19T11:27:43.833Z,92.70
2019-02-19T11:30:17.179Z,91.80
2019-02-19T11:32:45.477Z,92.70
2019-02-19T11:35:13.838Z,92.30
2019-02-19T11:37:42.134Z,91.70
2019-02-19T11:40:13.941Z,92.90
2019-02-19T11:42:42.231Z,94.50
2019-02-19T11:45:17.242Z,95.10
2019-02-19T11:47:45.543Z,94.30
2019-02-19T11:50:13.877Z,92.70
2019-02-19T11:52:42.171Z,92.00
2019-02-19T11:55:12.938Z,92.20
2019-02-19T11:57:41.877Z,89.50
2019-02-19T12:00:14.275Z,85.90
2019-02-19T12:02:42.562Z,86.40
2019-02-19T12:05:10.863Z,88.20
2019-02-19T12:07:39.195Z,87.60
2019-02-19T12:10:08.837Z,84.20
2019-02-19T12:12:37.156Z,83.40
2019-02-19T12:15:08.394Z,78.00
2019-02-19T12:17:36.663Z,78.20
2019-02-19T12:20:06.391Z,80.20
2019-02-19T12:22:34.668Z,77.00
2019-02-19T12:25:02.963Z,73.70
2019-02-19T12:27:31.269Z,70.60
2019-02-19T12:29:59.568Z,70.30
2019-02-19T12:32:27.826Z,73.70
2019-02-19T12:34:56.107Z,75.90
2019-02-19T12:37:24.375Z,74.10
2019-02-19T12:39:52.642Z,70.80
2019-02-19T12:42:20.908Z,69.40
2019-02-19T12:44:49.184Z,69.00
2019-02-19T12:47:17.461Z,66.90
2019-02-19T12:49:45.748Z,65.90
2019-02-19T12:52:14.047Z,63.90
2019-02-19T12:54:42.311Z,65.00
2019-02-19T12:57:10.592Z,65.70
2019-02-19T12:59:38.864Z,63.70
2019-02-19T13:02:07.157Z,63.60
2019-02-19T13:04:35.476Z,63.70
2019-02-19T13:07:03.772Z,61.80
2019-02-19T13:09:32.036Z,62.90
2019-02-19T13:12:00.398Z,65.10
2019-02-19T13:14:28.842Z,69.00
2019-02-19T13:16:57.127Z,73.70
2019-02-19T13:19:25.478Z,76.80
2019-02-19T13:21:53.833Z,81.40
2019-02-19T13:24:22.088Z,82.50
2019-02-19T13:26:50.387Z,85.80
2019-02-19T13:29:18.642Z,83.50
2019-02-19T13:31:46.930Z,83.60
2019-02-19T13:34:15.216Z,86.90
2019-02-19T13:36:43.501Z,91.10
2019-02-19T13:39:11.852Z,94.00
2019-02-19T13:41:40.128Z,95.40
2019-02-19T13:44:08.388Z,95.50
2019-02-19T13:46:36.647Z,96.50
2019-02-19T13:49:11.993Z,96.60
2019-02-19T13:51:34.971Z,93.60
2019-02-19T13:54:04.896Z,91.30
2019-02-19T13:56:33.203Z,90.60
2019-02-19T13:59:01.513Z,89.40
2019-02-19T14:01:29.795Z,84.30
2019-02-19T14:03:58.081Z,83.30
2019-02-19T14:06:26.409Z,80.70
2019-02-19T14:08:54.692Z,76.90
2019-02-19T14:11:22.959Z,73.60
2019-02-19T14:13:52.888Z,72.40
2019-02-19T14:16:22.775Z,68.50
2019-02-19T14:18:52.733Z,70.40
2019-02-19T14:21:40.535Z,70.80
2019-02-19T14:24:16.091Z,77.80
2019-02-19T14:26:46.024Z,87.40
2019-02-19T14:29:15.974Z,92.70
2019-02-19T14:31:48.548Z,94.70
2019-02-19T14:34:36.703Z,96.00
2019-02-19T14:37:22.655Z,97.10
2019-02-19T14:40:09.971Z,98.10
2019-02-19T14:42:45.048Z,98.60
2019-02-19T14:45:17.744Z,98.80
2019-02-19T14:48:03.749Z,99.30
2019-02-19T14:50:33.676Z,99.90
2019-02-19T14:53:12.652Z,99.90
2019-02-19T14:55:42.592Z,99.90
2019-02-19T14:58:15.166Z,99.90
2019-02-19T15:01:01.155Z,99.90
2019-02-19T15:03:34.034Z,99.90
2019-02-19T15:06:04.087Z,99.90
2019-02-19T15:08:37.044Z,99.90
2019-02-19T15:11:23.202Z,99.90
2019-02-19T15:13:55.968Z,99.90
2019-02-19T15:16:41.972Z,99.90
2019-02-19T15:19:27.939Z,99.90
2019-02-19T15:22:00.669Z,99.90
2019-02-19T15:24:39.702Z,99.90
2019-02-19T15:27:25.940Z,99.90
2019-02-19T15:30:13.789Z,99.90
2019-02-19T15:32:55.518Z,99.90
2019-02-19T15:35:39.982Z,99.90
2019-02-19T15:38:25.931Z,99.90
2019-02-19T15:41:01.946Z,99.90
2019-02-19T15:43:34.551Z,99.90
2019-02-19T15:46:04.511Z,99.90
2019-02-19T15:48:37.091Z,99.90
2019-02-19T15:51:06.989Z,99.90
2019-02-19T15:53:52.066Z,99.90
2019-02-19T15:56:37.037Z,99.90
2019-02-19T15:59:09.674Z,99.90
2019-02-19T16:01:51.721Z,99.90
2019-02-19T16:04:21.632Z,99.90
2019-02-19T16:06:57.562Z,99.90
2019-02-19T16:09:27.476Z,99.90
2019-02-19T16:12:00.190Z,99.90
2019-02-19T16:14:39.197Z,99.90
2019-02-19T16:17:24.295Z,99.90
2019-02-19T16:20:00.309Z,99.90
2019-02-19T16:22:39.127Z,99.90
2019-02-19T16:25:25.902Z,99.90
2019-02-19T16:28:10.682Z,99.90
2019-02-19T16:30:43.654Z,99.90
2019-02-19T16:33:31.488Z,99.90
2019-02-19T16:36:07.322Z,99.90
2019-02-19T16:38:46.217Z,99.90
2019-02-19T16:41:25.132Z,99.90
2019-02-19T16:43:57.781Z,99.90
2019-02-19T16:46:39.282Z,99.90
2019-02-19T16:49:15.326Z,99.90
2019-02-19T16:51:45.227Z,99.90
2019-02-19T16:54:20.838Z,99.90
2019-02-19T16:56:53.685Z,99.90
2019-02-19T16:59:23.688Z,99.90
2019-02-19T17:02:09.612Z,99.90
2019-02-19T17:04:55.719Z,99.90
2019-02-19T17:07:37.717Z,99.90
2019-02-19T17:10:10.892Z,99.90
2019-02-19T17:12:49.790Z,99.90
2019-02-19T17:15:30.011Z,99.90
2019-02-19T17:18:14.821Z,99.90
2019-02-19T17:20:47.421Z,99.90
2019-02-19T17:23:20.370Z,99.90
2019-02-19T17:25:59.398Z,99.90
2019-02-19T17:28:38.121Z,99.90
2019-02-19T17:31:08.056Z,99.90
2019-02-19T17:33:40.661Z,99.90
2019-02-19T17:36:10.581Z,99.90
2019-02-19T17:38:43.176Z,99.90
2019-02-19T17:41:21.960Z,99.90
2019-02-19T17:43:51.867Z,99.90
2019-02-19T17:46:30.657Z,99.90
2019-02-19T17:49:00.556Z,99.90
2019-02-19T17:51:30.474Z,99.90
2019-02-19T17:54:02.943Z,99.90
2019-02-19T17:56:38.657Z,99.90
2019-02-19T17:59:23.739Z,99.90
2019-02-19T18:01:53.681Z,99.90
2019-02-19T18:04:23.583Z,99.90
2019-02-19T18:06:53.618Z,99.90
2019-02-19T18:09:29.439Z,99.90
2019-02-19T18:12:15.798Z,99.90
2019-02-19T18:14:57.423Z,99.90
2019-02-19T18:17:27.415Z,99.90
2019-02-19T18:19:56.118Z,99.90
2019-02-19T18:22:24.691Z,99.90
2019-02-19T18:24:53.266Z,99.90
2019-02-19T18:27:21.867Z,99.90
2019-02-19T18:29:50.221Z,99.90
2019-02-19T18:32:18.496Z,99.90
2019-02-19T18:34:46.776Z,99.90
2019-02-19T18:37:15.173Z,99.90
2019-02-19T18:39:43.540Z,99.90
2019-02-19T18:42:11.890Z,99.90
2019-02-19T18:44:40.233Z,99.90
2019-02-19T18:47:08.481Z,99.90
2019-02-19T18:49:36.747Z,99.90
2019-02-19T18:52:05.017Z,99.90
2019-02-19T18:54:33.310Z,99.90
2019-02-19T18:57:01.577Z,99.90
2019-02-19T18:59:29.936Z,99.90
2019-02-19T19:01:58.196Z,99.90
2019-02-19T19:04:26.482Z,99.90
2019-02-19T19:06:54.766Z,99.90
2019-02-19T19:09:23.057Z,99.90
2019-02-19T19:11:51.322Z,99.90
2019-02-19T19:14:19.624Z,99.90
2019-02-19T19:16:47.881Z,99.90
2019-02-19T19:19:16.193Z,99.90
2019-02-19T19:21:44.477Z,99.90
2019-02-19T19:24:12.875Z,99.90
2019-02-19T19:26:41.200Z,99.90
2019-02-19T19:29:09.475Z,99.90
2019-02-19T19:31:37.778Z,99.90
2019-02-19T19:34:06.105Z,99.90
2019-02-19T19:36:34.397Z,99.90
2019-02-19T19:39:02.912Z,99.90
2019-02-19T19:41:31.226Z,99.90
2019-02-19T19:43:59.553Z,99.90
2019-02-19T19:46:28.751Z,99.90
2019-02-19T19:48:57.078Z,99.90
2019-02-19T19:51:25.371Z,99.90
2019-02-19T19:53:53.667Z,99.90
2019-02-19T19:56:22.026Z,99.90
2019-02-19T19:58:50.361Z,99.90
2019-02-19T20:01:18.692Z,99.90
2019-02-19T20:03:46.990Z,99.90
2019-02-19T20:06:15.267Z,99.90
2019-02-19T20:08:43.577Z,99.90
2019-02-19T20:11:11.882Z,99.90
2019-02-19T20:13:40.231Z,99.90
2019-02-19T20:16:08.490Z,99.90
2019-02-19T20:18:39.186Z,99.90
2019-02-19T20:21:06.822Z,99.90
2019-02-19T20:23:35.111Z,99.90
2019-02-19T20:26:03.505Z,99.90
2019-02-19T20:28:31.886Z,99.90
2019-02-19T20:31:00.141Z,99.90
2019-02-19T20:33:28.438Z,99.90
2019-02-19T20:35:56.691Z,99.90
2019-02-19T20:38:24.982Z,99.90
2019-02-19T20:40:53.270Z,99.90
2019-02-19T20:43:21.637Z,99.90
2019-02-19T20:45:49.907Z,99.90
2019-02-19T20:48:18.196Z,99.90
2019-02-19T20:50:46.487Z,99.90
2019-02-19T20:53:14.821Z,99.90
2019-02-19T20:55:43.089Z,99.90
2019-02-19T20:58:11.427Z,99.90
2019-02-19T21:00:39.683Z,99.90
2019-02-19T21:03:07.957Z,99.90
2019-02-19T21:05:36.326Z,99.90
2019-02-19T21:08:04.615Z,99.90
2019-02-19T21:10:32.910Z,99.90
2019-02-19T21:13:01.205Z,99.90
2019-02-19T21:15:29.491Z,99.90
2019-02-19T21:17:57.761Z,99.90
2019-02-19T21:20:26.052Z,99.90
2019-02-19T21:22:54.320Z,99.90
2019-02-19T21:25:30.781Z,99.90
2019-02-19T21:27:52.591Z,99.90
2019-02-19T21:30:20.880Z,99.90
2019-02-19T21:32:49.213Z,99.90
2019-02-19T21:35:17.507Z,99.90
2019-02-19T21:37:45.763Z,99.90
2019-02-19T21:40:15.000Z,99.90
2019-02-19T21:42:43.286Z,99.90
2019-02-19T21:45:15.223Z,99.90
2019-02-19T21:47:43.486Z,99.90
2019-02-19T21:50:12.820Z,99.90
2019-02-19T21:52:41.092Z,99.90
2019-02-19T21:55:12.827Z,99.90
2019-02-19T21:57:41.117Z,99.90
2019-02-19T22:00:16.350Z,99.90
2019-02-19T22:02:44.608Z,99.90
2019-02-19T22:05:12.918Z,99.90
2019-02-19T22:07:41.195Z,99.90
2019-02-19T22:10:13.412Z,99.90
2019-02-19T22:12:41.759Z,99.90
2019-02-19T22:15:11.782Z,99.90
2019-02-19T22:17:40.142Z,99.90
2019-02-19T22:20:35.997Z,99.90
2019-02-19T22:23:04.474Z,99.90
2019-02-19T22:25:32.790Z,99.90
2019-02-19T22:28:01.065Z,99.90
2019-02-19T22:30:29.335Z,99.90
2019-02-19T22:32:57.617Z,99.90
2019-02-19T22:35:25.871Z,99.90
2019-02-19T22:37:54.150Z,99.90
2019-02-19T22:40:22.425Z,99.90
2019-02-19T22:42:50.775Z,99.90
2019-02-19T22:45:19.040Z,99.90
2019-02-19T22:47:53.258Z,99.90
2019-02-19T22:50:17.291Z,99.90
2019-02-19T22:52:45.584Z,99.90
2019-02-19T22:55:24.540Z,99.90
2019-02-19T22:57:52.811Z,99.90
2019-02-19T23:00:49.221Z,99.90
2019-02-19T23:03:19.178Z,99.90
2019-02-19T23:05:47.424Z,99.90
2019-02-19T23:08:15.696Z,99.90
2019-02-19T23:10:43.962Z,99.90
2019-02-19T23:13:12.256Z,99.90
2019-02-19T23:15:40.516Z,99.90
2019-02-19T23:18:08.797Z,99.90
2019-02-19T23:20:37.054Z,99.90
2019-02-19T23:23:05.336Z,99.90
2019-02-19T23:25:33.656Z,99.90
2019-02-19T23:28:02.020Z,99.90
2019-02-19T23:30:30.276Z,99.90
2019-02-19T23:32:58.587Z,99.90
2019-02-19T23:35:34.480Z,99.90
2019-02-19T23:38:02.772Z,99.90
2019-02-19T23:40:31.094Z,99.90
2019-02-19T23:42:59.380Z,99.90
2019-02-19T23:45:27.654Z,99.90
2019-02-19T23:47:55.921Z,99.90
2019-02-19T23:50:24.218Z,99.90
2019-02-19T23:52:52.466Z,99.90
2019-02-19T23:55:20.760Z,99.90
2019-02-19T23:57:49.016Z,99.90
